createdAt,value
2018-07-21T00:00:58.897Z,97711.77
2018-07-21T00:03:28.344Z,97712.30
2018-07-21T00:05:57.516Z,97709.64
2018-07-21T00:08:26.949Z,97704.08
2018-07-21T00:10:56.133Z,97701.14
2018-07-21T00:13:25.563Z,97695.83
2018-07-21T00:15:54.689Z,97703.00
2018-07-21T00:18:24.166Z,97706.43
2018-07-21T00:20:53.291Z,97705.91
2018-07-21T00:23:22.742Z,97708.81
2018-07-21T00:25:52.658Z,97714.37
2018-07-21T00:28:22.096Z,97713.60
2018-07-21T00:30:51.513Z,97712.24
2018-07-21T00:33:20.910Z,97716.50
2018-07-21T00:35:50.326Z,97721.02
2018-07-21T00:38:19.782Z,97717.80
2018-07-21T00:40:49.712Z,97710.91
2018-07-21T00:43:19.487Z,97716.75
2018-07-21T00:45:48.993Z,97720.45
2018-07-21T00:48:18.431Z,97711.95
2018-07-21T00:50:47.864Z,97703.18
2018-07-21T00:53:17.326Z,97702.13
2018-07-21T00:55:46.793Z,97705.84
2018-07-21T00:58:16.336Z,97700.80
2018-07-21T01:00:45.776Z,97703.45
2018-07-21T01:03:15.250Z,97699.97
2018-07-21T01:05:45.207Z,97695.97
2018-07-21T01:08:14.817Z,97694.61
2018-07-21T01:10:44.279Z,97696.18
2018-07-21T01:13:13.733Z,97691.14
2018-07-21T01:15:43.361Z,97690.06
2018-07-21T01:18:13.017Z,97686.08
2018-07-21T01:20:42.454Z,97675.45
2018-07-21T01:23:12.445Z,97677.58
2018-07-21T01:25:41.862Z,97680.23
2018-07-21T01:28:11.409Z,97674.64
2018-07-21T01:30:40.893Z,97677.02
2018-07-21T01:33:10.417Z,97674.63
2018-07-21T01:35:39.858Z,97666.63
2018-07-21T01:38:09.772Z,97670.09
2018-07-21T01:40:39.245Z,97674.07
2018-07-21T01:43:08.681Z,97673.79
2018-07-21T01:45:38.076Z,97680.43
2018-07-21T01:48:07.796Z,97682.80
2018-07-21T01:50:37.238Z,97676.97
2018-07-21T01:53:06.399Z,97684.09
2018-07-21T01:55:35.550Z,97683.00
2018-07-21T01:58:05.365Z,97682.24
2018-07-21T02:00:34.796Z,97684.62
2018-07-21T02:03:04.211Z,97693.63
2018-07-21T02:05:33.636Z,97698.38
2018-07-21T02:08:03.594Z,97703.95
2018-07-21T02:10:33.264Z,97736.35
2018-07-21T02:13:02.678Z,97744.04
2018-07-21T02:15:32.092Z,97748.83
2018-07-21T02:18:01.258Z,97751.77
2018-07-21T02:20:30.735Z,97746.17
2018-07-21T02:23:00.149Z,97739.29
2018-07-21T02:25:29.812Z,97737.16
2018-07-21T02:27:59.229Z,97755.23
2018-07-21T02:30:28.409Z,97757.12
2018-07-21T02:32:57.822Z,97756.12
2018-07-21T02:35:26.939Z,97757.47
2018-07-21T02:37:56.437Z,97751.63
2018-07-21T02:40:25.964Z,97749.27
2018-07-21T02:42:55.977Z,97743.44
2018-07-21T02:45:25.554Z,97738.68
2018-07-21T02:47:54.719Z,97752.20
2018-07-21T02:50:23.880Z,97747.70
2018-07-21T02:52:53.302Z,97753.25
2018-07-21T02:55:22.719Z,97766.28
2018-07-21T02:57:52.222Z,97771.59
2018-07-21T03:00:21.353Z,97773.17
2018-07-21T03:02:50.790Z,97768.41
2018-07-21T03:05:20.242Z,97764.92
2018-07-21T03:07:49.625Z,97767.33
2018-07-21T03:10:19.095Z,97778.77
2018-07-21T03:12:49.102Z,97773.45
2018-07-21T03:15:18.270Z,97775.06
2018-07-21T03:17:47.847Z,97775.06
2018-07-21T03:20:17.405Z,97781.14
2018-07-21T03:22:46.942Z,97777.67
2018-07-21T03:25:16.608Z,97769.94
2018-07-21T03:27:46.039Z,97766.22
2018-07-21T03:30:15.465Z,97770.66
2018-07-21T03:32:45.039Z,97760.53
2018-07-21T03:35:14.472Z,97762.11
2018-07-21T03:37:43.945Z,97761.05
2018-07-21T03:40:13.400Z,97764.75
2018-07-21T03:42:42.868Z,97756.77
2018-07-21T03:45:12.493Z,97759.95
2018-07-21T03:47:41.685Z,97753.31
2018-07-21T03:50:11.164Z,97744.02
2018-07-21T03:52:40.581Z,97746.39
2018-07-21T03:55:10.078Z,97749.33
2018-07-21T03:57:39.433Z,97739.23
2018-07-21T04:00:09.067Z,97730.74
2018-07-21T04:02:38.514Z,97730.75
2018-07-21T04:05:07.969Z,97725.20
2018-07-21T04:07:37.423Z,97723.59
2018-07-21T04:10:06.857Z,97717.47
2018-07-21T04:12:36.362Z,97716.67
2018-07-21T04:15:05.968Z,97713.77
2018-07-21T04:17:35.092Z,97706.84
2018-07-21T04:20:04.560Z,97707.65
2018-07-21T04:22:33.723Z,97705.52
2018-07-21T04:25:03.012Z,97701.53
2018-07-21T04:27:32.483Z,97699.92
2018-07-21T04:30:01.905Z,97701.02
2018-07-21T04:32:31.372Z,97697.55
2018-07-21T04:35:00.496Z,97694.90
2018-07-21T04:37:29.931Z,97693.05
2018-07-21T04:39:59.394Z,97687.70
2018-07-21T04:42:28.777Z,97698.60
2018-07-21T04:44:58.229Z,97688.54
2018-07-21T04:47:27.680Z,97691.72
2018-07-21T04:49:57.099Z,97704.47
2018-07-21T04:52:26.250Z,97703.67
2018-07-21T04:54:55.694Z,97708.45
2018-07-21T04:57:25.117Z,97700.48
2018-07-21T04:59:54.491Z,97700.97
2018-07-21T05:02:23.891Z,97705.00
2018-07-21T05:04:53.292Z,97707.13
2018-07-21T05:07:22.717Z,97704.72
2018-07-21T05:09:52.164Z,97706.06
2018-07-21T05:12:21.650Z,97707.42
2018-07-21T05:14:51.077Z,97711.17
2018-07-21T05:17:20.543Z,97701.36
2018-07-21T05:19:49.986Z,97704.05
2018-07-21T05:22:19.440Z,97706.47
2018-07-21T05:24:48.850Z,97708.36
2018-07-21T05:27:18.744Z,97707.84
2018-07-21T05:29:48.186Z,97702.26
2018-07-21T05:32:17.700Z,97706.28
2018-07-21T05:34:47.161Z,97708.70
2018-07-21T05:37:16.635Z,97710.03
2018-07-21T05:39:46.069Z,97708.45
2018-07-21T05:42:15.516Z,97712.20
2018-07-21T05:44:44.641Z,97711.43
2018-07-21T05:47:14.068Z,97717.00
2018-07-21T05:49:43.700Z,97718.36
2018-07-21T05:52:13.151Z,97712.23
2018-07-21T05:54:42.645Z,97713.84
2018-07-21T05:57:12.076Z,97715.45
2018-07-21T05:59:41.505Z,97721.05
2018-07-21T06:02:10.963Z,97720.00
2018-07-21T06:04:41.390Z,97716.54
2018-07-21T06:07:10.527Z,97725.07
2018-07-21T06:09:39.931Z,97727.20
2018-07-21T06:12:09.337Z,97732.27
2018-07-21T06:14:38.723Z,97730.95
2018-07-21T06:17:08.413Z,97737.06
2018-07-21T06:19:37.853Z,97744.52
2018-07-21T06:22:07.384Z,97743.47
2018-07-21T06:24:36.887Z,97737.65
2018-07-21T06:27:06.730Z,97735.80
2018-07-21T06:29:36.176Z,97732.36
2018-07-21T06:32:05.564Z,97739.28
2018-07-21T06:34:35.009Z,97739.00
2018-07-21T06:37:04.420Z,97742.99
2018-07-21T06:39:33.912Z,97741.69
2018-07-21T06:42:03.985Z,97746.73
2018-07-21T06:44:33.137Z,97748.89
2018-07-21T06:47:02.535Z,97748.88
2018-07-21T06:49:32.226Z,97752.89
2018-07-21T06:52:01.656Z,97753.70
2018-07-21T06:54:31.090Z,97761.67
2018-07-21T06:57:00.585Z,97754.74
2018-07-21T06:59:30.039Z,97757.15
2018-07-21T07:01:59.483Z,97753.16
2018-07-21T07:04:28.932Z,97752.91
2018-07-21T07:06:58.088Z,97754.77
2018-07-21T07:09:27.594Z,97760.08
2018-07-21T07:11:57.003Z,97756.36
2018-07-21T07:14:26.487Z,97755.30
2018-07-21T07:16:55.888Z,97757.45
2018-07-21T07:19:25.356Z,97751.32
2018-07-21T07:21:54.555Z,97758.25
2018-07-21T07:24:23.998Z,97755.58
2018-07-21T07:26:53.440Z,97757.71
2018-07-21T07:29:22.870Z,97759.31
2018-07-21T07:31:52.302Z,97757.97
2018-07-21T07:34:21.761Z,97761.17
2018-07-21T07:36:51.171Z,97763.89
2018-07-21T07:39:20.584Z,97763.34
2018-07-21T07:41:50.045Z,97756.95
2018-07-21T07:44:19.469Z,97759.62
2018-07-21T07:46:48.933Z,97762.02
2018-07-21T07:49:18.526Z,97766.26
2018-07-21T07:51:47.996Z,97766.00
2018-07-21T07:54:17.431Z,97768.11
2018-07-21T07:56:46.857Z,97773.70
2018-07-21T07:59:16.247Z,97766.52
2018-07-21T08:01:45.649Z,97764.12
2018-07-21T08:04:15.090Z,97763.59
2018-07-21T08:06:44.558Z,97762.23
2018-07-21T08:09:14.134Z,97764.38
2018-07-21T08:11:44.158Z,97767.82
2018-07-21T08:14:13.599Z,97761.95
2018-07-21T08:16:42.964Z,97761.14
2018-07-21T08:19:12.384Z,97760.08
2018-07-21T08:21:41.837Z,97760.06
2018-07-21T08:24:11.354Z,97763.79
2018-07-21T08:26:40.800Z,97762.16
2018-07-21T08:29:10.013Z,97758.46
2018-07-21T08:31:39.399Z,97764.29
2018-07-21T08:34:08.589Z,97768.59
2018-07-21T08:36:38.060Z,97770.97
2018-07-21T08:39:10.526Z,97767.47
2018-07-21T08:41:39.966Z,97768.80
2018-07-21T08:44:09.418Z,97777.05
2018-07-21T08:46:38.828Z,97771.70
2018-07-21T08:49:08.302Z,97771.68
2018-07-21T08:51:37.751Z,97778.88
2018-07-21T08:54:07.205Z,97778.32
2018-07-21T08:56:36.631Z,97781.77
2018-07-21T08:59:06.607Z,97783.65
2018-07-21T09:01:36.072Z,97779.62
2018-07-21T09:04:05.575Z,97787.08
2018-07-21T09:06:35.033Z,97790.80
2018-07-21T09:09:06.592Z,97792.39
2018-07-21T09:11:36.026Z,97796.39
2018-07-21T09:14:05.451Z,97795.56
2018-07-21T09:16:34.863Z,97793.65
2018-07-21T09:19:04.420Z,97798.16
2018-07-21T09:21:33.961Z,97798.71
2018-07-21T09:24:03.415Z,97796.05
2018-07-21T09:26:32.806Z,97801.59
2018-07-21T09:29:02.269Z,97802.38
2018-07-21T09:31:31.394Z,97807.43
2018-07-21T09:34:00.848Z,97807.68
2018-07-21T09:36:30.024Z,97807.67
2018-07-21T09:38:59.423Z,97803.94
2018-07-21T09:41:28.908Z,97803.69
2018-07-21T09:43:58.348Z,97800.30
2018-07-21T09:46:27.774Z,97800.56
2018-07-21T09:48:57.205Z,97795.75
2018-07-21T09:51:26.670Z,97797.05
2018-07-21T09:53:56.137Z,97791.16
2018-07-21T09:56:25.539Z,97795.95
2018-07-21T09:58:55.024Z,97798.91
2018-07-21T10:01:24.512Z,97805.85
2018-07-21T10:03:53.916Z,97806.34
2018-07-21T10:06:23.359Z,97801.52
2018-07-21T10:08:52.794Z,97802.03
2018-07-21T10:11:22.178Z,97808.41
2018-07-21T10:13:51.600Z,97809.75
2018-07-21T10:16:21.025Z,97809.48
2018-07-21T10:18:50.445Z,97811.11
2018-07-21T10:21:19.582Z,97811.93
2018-07-21T10:23:49.059Z,97816.72
2018-07-21T10:26:23.781Z,97810.81
2018-07-21T10:29:12.574Z,97808.48
2018-07-21T10:31:43.425Z,97813.00
2018-07-21T10:34:13.024Z,97814.02
2018-07-21T10:36:42.466Z,97815.69
2018-07-21T10:39:14.182Z,97807.88
2018-07-21T10:41:43.727Z,97806.25
2018-07-21T10:44:13.125Z,97801.64
2018-07-21T10:46:42.559Z,97803.16
2018-07-21T10:49:11.705Z,97802.02
2018-07-21T10:51:41.254Z,97809.44
2018-07-21T10:54:10.725Z,97797.62
2018-07-21T10:56:40.187Z,97798.39
2018-07-21T10:59:09.603Z,97801.23
2018-07-21T11:01:39.044Z,97792.81
2018-07-21T11:04:08.560Z,97799.92
2018-07-21T11:06:37.945Z,97797.71
2018-07-21T11:09:10.577Z,97796.83
2018-07-21T11:11:40.492Z,97797.86
2018-07-21T11:14:09.699Z,97796.48
2018-07-21T11:16:39.142Z,97797.52
2018-07-21T11:19:08.539Z,97797.70
2018-07-21T11:21:38.024Z,97798.23
2018-07-21T11:24:07.683Z,97796.91
2018-07-21T11:26:37.115Z,97798.99
2018-07-21T11:29:06.828Z,97806.90
2018-07-21T11:31:36.585Z,97802.88
2018-07-21T11:34:06.220Z,97807.08
2018-07-21T11:36:35.758Z,97806.24
2018-07-21T11:39:06.861Z,97804.89
2018-07-21T11:41:36.295Z,97805.78
2018-07-21T11:44:05.712Z,97811.59
2018-07-21T11:46:34.918Z,97800.80
2018-07-21T11:49:04.388Z,97804.36
2018-07-21T11:51:33.843Z,97807.66
2018-07-21T11:54:03.279Z,97809.27
2018-07-21T11:56:32.677Z,97816.19
2018-07-21T11:59:02.175Z,97812.39
2018-07-21T12:01:31.554Z,97813.36
2018-07-21T12:04:01.091Z,97815.59
2018-07-21T12:06:30.527Z,97808.61
2018-07-21T12:08:59.978Z,97814.67
2018-07-21T12:11:29.133Z,97812.75
2018-07-21T12:13:59.173Z,97816.37
2018-07-21T12:16:28.668Z,97817.48
2018-07-21T12:18:58.135Z,97811.95
2018-07-21T12:21:27.545Z,97809.12
2018-07-21T12:23:57.043Z,97811.16
2018-07-21T12:26:26.435Z,97811.09
2018-07-21T12:28:56.016Z,97809.62
2018-07-21T12:31:25.470Z,97806.90
2018-07-21T12:33:54.889Z,97803.42
2018-07-21T12:36:24.289Z,97798.89
2018-07-21T12:38:53.724Z,97801.47
2018-07-21T12:41:23.229Z,97801.32
2018-07-21T12:43:53.352Z,97802.12
2018-07-21T12:46:22.923Z,97792.80
2018-07-21T12:48:52.292Z,97791.96
2018-07-21T12:51:21.691Z,97798.44
2018-07-21T12:53:51.210Z,97801.02
2018-07-21T12:56:20.632Z,97810.43
2018-07-21T12:58:50.088Z,97814.62
2018-07-21T13:01:19.584Z,97809.31
2018-07-21T13:03:49.026Z,97807.63
2018-07-21T13:06:18.474Z,97808.16
2018-07-21T13:08:47.903Z,97806.77
2018-07-21T13:11:17.518Z,97810.56
2018-07-21T13:13:46.971Z,97809.09
2018-07-21T13:16:16.422Z,97809.66
2018-07-21T13:18:45.940Z,97812.11
2018-07-21T13:21:15.079Z,97809.94
2018-07-21T13:23:44.524Z,97817.46
2018-07-21T13:26:13.914Z,97821.06
2018-07-21T13:28:43.444Z,97822.44
2018-07-21T13:31:13.393Z,97822.94
2018-07-21T13:33:42.752Z,97820.59
2018-07-21T13:36:12.303Z,97822.70
2018-07-21T13:38:41.692Z,97828.50
2018-07-21T13:41:11.094Z,97836.86
2018-07-21T13:43:40.506Z,97839.72
2018-07-21T13:46:09.594Z,97836.37
2018-07-21T13:48:39.030Z,97839.55
2018-07-21T13:51:08.888Z,97833.95
2018-07-21T13:53:39.016Z,97827.89
2018-07-21T13:56:08.537Z,97829.15
2018-07-21T13:58:37.665Z,97827.58
2018-07-21T14:01:07.480Z,97823.56
2018-07-21T14:03:36.952Z,97818.29
2018-07-21T14:06:06.387Z,97827.34
2018-07-21T14:08:35.843Z,97823.66
2018-07-21T14:11:05.166Z,97816.47
2018-07-21T14:13:34.656Z,97812.71
2018-07-21T14:16:04.143Z,97808.66
2018-07-21T14:18:33.538Z,97805.11
2018-07-21T14:21:02.939Z,97799.95
2018-07-21T14:23:33.370Z,97809.55
2018-07-21T14:26:02.781Z,97808.69
2018-07-21T14:28:32.222Z,97811.61
2018-07-21T14:31:01.649Z,97816.89
2018-07-21T14:33:31.081Z,97823.88
2018-07-21T14:36:00.589Z,97822.51
2018-07-21T14:38:29.906Z,97827.02
2018-07-21T14:40:59.325Z,97827.47
2018-07-21T14:43:28.760Z,97820.48
2018-07-21T14:45:58.209Z,97813.37
2018-07-21T14:48:27.615Z,97812.92
2018-07-21T14:50:57.071Z,97809.02
2018-07-21T14:53:26.462Z,97803.47
2018-07-21T14:55:55.962Z,97798.55
2018-07-21T14:58:25.412Z,97797.98
2018-07-21T15:00:54.828Z,97803.45
2018-07-21T15:03:24.246Z,97788.39
2018-07-21T15:05:53.657Z,97787.54
2018-07-21T15:08:23.115Z,97789.97
2018-07-21T15:10:52.615Z,97794.02
2018-07-21T15:13:22.091Z,97794.29
2018-07-21T15:15:51.517Z,97791.50
2018-07-21T15:18:20.977Z,97792.58
2018-07-21T15:20:50.413Z,97785.23
2018-07-21T15:23:19.800Z,97790.95
2018-07-21T15:25:50.337Z,97793.95
2018-07-21T15:28:19.739Z,97793.73
2018-07-21T15:30:49.206Z,97795.98
2018-07-21T15:33:18.611Z,97793.63
2018-07-21T15:35:47.996Z,97797.63
2018-07-21T15:38:17.474Z,97794.15
2018-07-21T15:40:46.921Z,97788.52
2018-07-21T15:43:16.438Z,97785.80
2018-07-21T15:45:45.845Z,97793.45
2018-07-21T15:48:15.242Z,97796.88
2018-07-21T15:50:44.690Z,97800.64
2018-07-21T15:53:14.094Z,97798.67
2018-07-21T15:55:43.529Z,97794.44
2018-07-21T15:58:12.946Z,97797.17
2018-07-21T16:00:42.387Z,97798.44
2018-07-21T16:03:11.811Z,97798.23
2018-07-21T16:05:41.234Z,97804.94
2018-07-21T16:08:10.672Z,97803.52
2018-07-21T16:10:40.141Z,97811.34
2018-07-21T16:13:09.575Z,97816.88
2018-07-21T16:15:39.029Z,97831.73
2018-07-21T16:18:08.509Z,97830.91
2018-07-21T16:20:37.928Z,97850.68
2018-07-21T16:23:07.372Z,97857.45
2018-07-21T16:25:36.805Z,97874.21
2018-07-21T16:28:06.515Z,97880.43
2018-07-21T16:30:35.676Z,97905.78
2018-07-21T16:33:05.120Z,97904.70
2018-07-21T16:35:34.258Z,97905.29
2018-07-21T16:38:03.709Z,97915.61
2018-07-21T16:40:33.145Z,97938.67
2018-07-21T16:43:02.581Z,97939.75
2018-07-21T16:45:32.004Z,97941.85
2018-07-21T16:48:01.448Z,97933.45
2018-07-21T16:50:30.937Z,97938.68
2018-07-21T16:53:00.344Z,97942.87
2018-07-21T16:55:29.491Z,97939.54
2018-07-21T16:57:58.939Z,97937.40
2018-07-21T17:00:28.079Z,97942.16
2018-07-21T17:02:57.514Z,97939.62
2018-07-21T17:05:27.431Z,97943.27
2018-07-21T17:07:56.868Z,97941.93
2018-07-21T17:10:26.353Z,97953.81
2018-07-21T17:12:55.781Z,97962.77
2018-07-21T17:15:25.224Z,97962.22
2018-07-21T17:17:54.649Z,97964.82
2018-07-21T17:20:24.141Z,97965.33
2018-07-21T17:22:53.623Z,97963.77
2018-07-21T17:25:23.099Z,97968.34
2018-07-21T17:27:52.809Z,97959.58
2018-07-21T17:30:22.238Z,97958.74
2018-07-21T17:32:51.628Z,97960.37
2018-07-21T17:35:20.773Z,97959.05
2018-07-21T17:37:50.221Z,97952.33
2018-07-21T17:40:19.406Z,97962.89
2018-07-21T17:42:48.817Z,97958.37
2018-07-21T17:45:18.231Z,97959.70
2018-07-21T17:47:47.797Z,97949.38
2018-07-21T17:50:17.276Z,97950.18
2018-07-21T17:52:46.733Z,97945.61
2018-07-21T17:55:16.185Z,97945.03
2018-07-21T17:57:45.656Z,97949.30
2018-07-21T18:00:15.136Z,97950.61
2018-07-21T18:02:44.581Z,97944.72
2018-07-21T18:05:14.039Z,97952.91
2018-07-21T18:07:43.459Z,97957.94
2018-07-21T18:10:12.994Z,97950.44
2018-07-21T18:12:42.198Z,97953.59
2018-07-21T18:15:11.632Z,97953.57
2018-07-21T18:17:41.047Z,97958.31
2018-07-21T18:20:10.536Z,97947.67
2018-07-21T18:22:39.931Z,97949.23
2018-07-21T18:25:09.382Z,97934.03
2018-07-21T18:27:38.744Z,97927.87
2018-07-21T18:30:08.196Z,97915.34
2018-07-21T18:32:37.666Z,97922.56
2018-07-21T18:35:07.134Z,97928.77
2018-07-21T18:37:36.592Z,97922.66
2018-07-21T18:40:06.319Z,97914.53
2018-07-21T18:42:35.748Z,97914.84
2018-07-21T18:45:05.593Z,97917.84
2018-07-21T18:47:35.035Z,97912.45
2018-07-21T18:50:04.751Z,97924.40
2018-07-21T18:52:34.111Z,97925.96
2018-07-21T18:55:03.589Z,97929.08
2018-07-21T18:57:33.031Z,97920.63
2018-07-21T19:00:02.406Z,97916.73
2018-07-21T19:02:31.518Z,97919.38
2018-07-21T19:05:00.955Z,97923.09
2018-07-21T19:07:30.377Z,97916.17
2018-07-21T19:09:59.844Z,97917.24
2018-07-21T19:12:34.528Z,97918.82
2018-07-21T19:15:04.018Z,97913.46
2018-07-21T19:17:34.448Z,97918.72
2018-07-21T19:20:09.090Z,97918.47
2018-07-21T19:22:39.020Z,97918.47
2018-07-21T19:25:14.077Z,97909.17
2018-07-21T19:27:44.091Z,97909.98
2018-07-21T19:30:13.202Z,97911.83
2018-07-21T19:32:47.942Z,97917.88
2018-07-21T19:35:17.381Z,97919.98
2018-07-21T19:37:48.174Z,97924.40
2018-07-21T19:40:19.561Z,97929.40
2018-07-21T19:42:49.489Z,97928.52
2018-07-21T19:45:19.013Z,97929.30
2018-07-21T19:47:49.033Z,97933.95
2018-07-21T19:50:18.111Z,97939.69
2018-07-21T19:52:47.583Z,97938.97
2018-07-21T19:55:16.712Z,97944.81
2018-07-21T19:57:46.137Z,97951.73
2018-07-21T20:00:15.603Z,97950.92
2018-07-21T20:02:45.073Z,97950.92
2018-07-21T20:05:14.283Z,97949.20
2018-07-21T20:07:43.750Z,97950.69
2018-07-21T20:10:13.144Z,97963.73
2018-07-21T20:12:42.563Z,97958.70
2018-07-21T20:15:11.696Z,97955.47
2018-07-21T20:17:41.114Z,97961.21
2018-07-21T20:20:10.355Z,97961.77
2018-07-21T20:22:39.806Z,97954.24
2018-07-21T20:25:09.263Z,97957.23
2018-07-21T20:27:38.698Z,97954.88
2018-07-21T20:30:07.862Z,97957.56
2018-07-21T20:32:37.264Z,97957.81
2018-07-21T20:35:06.766Z,97957.19
2018-07-21T20:37:36.225Z,97955.05
2018-07-21T20:40:05.963Z,97950.23
2018-07-21T20:42:35.380Z,97951.34
2018-07-21T20:45:04.920Z,97958.51
2018-07-21T20:47:35.835Z,97953.50
2018-07-21T20:50:05.455Z,97956.70
2018-07-21T20:52:35.165Z,97951.88
2018-07-21T20:55:04.833Z,97960.75
2018-07-21T20:57:34.336Z,97961.76
2018-07-21T21:00:03.896Z,97961.98
2018-07-21T21:02:33.801Z,97965.38
2018-07-21T21:05:03.902Z,97962.73
2018-07-21T21:07:33.297Z,97966.42
2018-07-21T21:10:02.789Z,97966.36
2018-07-21T21:12:32.249Z,97966.91
2018-07-21T21:15:01.707Z,97970.62
2018-07-21T21:17:31.126Z,97964.67
2018-07-21T21:20:00.538Z,97967.03
2018-07-21T21:22:30.032Z,97963.61
2018-07-21T21:24:59.406Z,97970.20
2018-07-21T21:27:29.570Z,97965.07
2018-07-21T21:29:59.092Z,97965.45
2018-07-21T21:32:28.555Z,97967.11
2018-07-21T21:34:57.997Z,97976.15
2018-07-21T21:37:27.434Z,97969.94
2018-07-21T21:39:56.603Z,97965.71
2018-07-21T21:42:26.186Z,97959.31
2018-07-21T21:44:55.532Z,97952.70
2018-07-21T21:47:24.896Z,97955.34
2018-07-21T21:49:54.364Z,97963.77
2018-07-21T21:52:23.856Z,97966.55
2018-07-21T21:54:53.056Z,97959.22
2018-07-21T21:57:22.522Z,97964.22
2018-07-21T21:59:52.789Z,97964.22
2018-07-21T22:02:22.373Z,97967.97
2018-07-21T22:04:51.947Z,97962.86
2018-07-21T22:07:21.071Z,97967.58
2018-07-21T22:09:50.597Z,97960.11
2018-07-21T22:12:20.356Z,97966.70
2018-07-21T22:14:49.865Z,97970.42
2018-07-21T22:17:19.258Z,97972.00
2018-07-21T22:19:48.679Z,97975.39
2018-07-21T22:22:18.255Z,97975.94
2018-07-21T22:24:47.413Z,97978.80
2018-07-21T22:27:16.549Z,97980.91
2018-07-21T22:29:45.661Z,97986.75
2018-07-21T22:32:15.171Z,97985.80
2018-07-21T22:34:44.702Z,97989.03
2018-07-21T22:37:14.650Z,97988.96
2018-07-21T22:39:44.074Z,97986.75
2018-07-21T22:42:13.591Z,97986.94
2018-07-21T22:44:42.711Z,97991.42
2018-07-21T22:47:12.128Z,97990.50
2018-07-21T22:49:42.778Z,97993.38
2018-07-21T22:52:14.127Z,97992.52
2018-07-21T22:54:44.089Z,97991.67
2018-07-21T22:57:13.216Z,97994.66
2018-07-21T22:59:43.316Z,97996.50
2018-07-21T23:02:12.510Z,97991.97
2018-07-21T23:04:42.516Z,97998.52
2018-07-21T23:07:11.982Z,97994.33
2018-07-21T23:09:41.390Z,98000.36
2018-07-21T23:12:11.341Z,98002.27
2018-07-21T23:14:40.485Z,97998.77
2018-07-21T23:17:10.169Z,97999.91
2018-07-21T23:19:40.241Z,97998.00
2018-07-21T23:22:09.834Z,97996.05
2018-07-21T23:24:39.414Z,97991.56
2018-07-21T23:27:09.208Z,97990.53
2018-07-21T23:29:38.646Z,97995.87
2018-07-21T23:32:08.676Z,97988.33
2018-07-21T23:34:38.151Z,97987.27
2018-07-21T23:37:07.358Z,97987.05
2018-07-21T23:39:37.339Z,97981.37
2018-07-21T23:42:06.762Z,97984.29
2018-07-21T23:44:36.175Z,97987.11
2018-07-21T23:47:05.580Z,97983.91
2018-07-21T23:49:34.737Z,97986.73
2018-07-21T23:52:04.294Z,97988.06
2018-07-21T23:54:33.737Z,97992.55
2018-07-21T23:57:03.227Z,97989.64
2018-07-21T23:59:32.658Z,97987.22
